createdAt,value
2023-04-18T00:01:47.549Z,82.50
2023-04-18T00:04:18.558Z,82.40
2023-04-18T00:06:53.427Z,82.30
2023-04-18T00:09:21.496Z,82.00
2023-04-18T00:11:48.788Z,81.90
2023-04-18T00:14:16.065Z,82.00
2023-04-18T00:16:44.565Z,82.10
2023-04-18T00:19:12.170Z,82.10
2023-04-18T00:21:48.019Z,82.10
2023-04-18T00:24:21.323Z,82.50
2023-04-18T00:26:49.241Z,82.90
2023-04-18T00:29:17.517Z,83.00
2023-04-18T00:31:44.846Z,82.80
2023-04-18T00:34:12.591Z,82.70
2023-04-18T00:36:39.987Z,82.70
2023-04-18T00:39:07.266Z,82.50
2023-04-18T00:41:35.367Z,82.20
2023-04-18T00:44:02.498Z,82.10
2023-04-18T00:46:29.586Z,82.20
2023-04-18T00:48:59.190Z,82.70
2023-04-18T00:51:26.563Z,81.80
2023-04-18T00:53:54.138Z,81.80
2023-04-18T00:56:21.929Z,81.90
2023-04-18T00:58:49.249Z,82.10
2023-04-18T01:01:16.543Z,81.90
2023-04-18T01:03:44.295Z,81.80
2023-04-18T01:06:11.676Z,81.60
2023-04-18T01:08:38.908Z,81.50
2023-04-18T01:11:06.294Z,81.50
2023-04-18T01:13:33.517Z,81.70
2023-04-18T01:16:00.874Z,81.80
2023-04-18T01:18:27.911Z,82.00
2023-04-18T01:20:57.178Z,81.90
2023-04-18T01:23:24.361Z,81.90
2023-04-18T01:25:52.168Z,81.80
2023-04-18T01:28:20.141Z,81.50
2023-04-18T01:30:47.256Z,81.30
2023-04-18T01:33:14.605Z,81.00
2023-04-18T01:35:41.748Z,80.90
2023-04-18T01:38:09.554Z,81.20
2023-04-18T01:40:36.668Z,81.20
2023-04-18T01:43:03.718Z,81.10
2023-04-18T01:45:30.926Z,81.20
2023-04-18T01:47:58.030Z,81.30
2023-04-18T01:50:25.480Z,81.10
2023-04-18T01:52:52.709Z,81.40
2023-04-18T01:55:19.797Z,81.00
2023-04-18T01:57:47.161Z,80.70
2023-04-18T02:00:14.502Z,80.70
2023-04-18T02:02:41.824Z,80.50
2023-04-18T02:05:09.670Z,80.40
2023-04-18T02:07:36.952Z,80.20
2023-04-18T02:10:04.253Z,80.20
2023-04-18T02:12:32.346Z,80.50
2023-04-18T02:14:59.563Z,80.50
2023-04-18T02:17:26.748Z,79.70
2023-04-18T02:19:53.826Z,80.00
2023-04-18T02:22:20.854Z,80.30
2023-04-18T02:24:48.979Z,80.20
2023-04-18T02:27:16.124Z,80.00
2023-04-18T02:29:43.267Z,80.20
2023-04-18T02:32:10.417Z,80.20
2023-04-18T02:34:37.756Z,80.20
2023-04-18T02:37:04.983Z,80.20
2023-04-18T02:39:32.194Z,80.20
2023-04-18T02:41:59.398Z,80.00
2023-04-18T02:44:26.469Z,79.70
2023-04-18T02:46:53.540Z,79.40
2023-04-18T02:49:20.752Z,79.20
2023-04-18T02:51:48.048Z,79.20
2023-04-18T02:54:15.394Z,79.20
2023-04-18T02:56:43.065Z,79.20
2023-04-18T02:59:10.131Z,79.60
2023-04-18T03:01:37.349Z,79.70
2023-04-18T03:04:04.604Z,79.70
2023-04-18T03:06:32.122Z,80.00
2023-04-18T03:08:59.178Z,80.00
2023-04-18T03:11:26.196Z,79.70
2023-04-18T03:13:53.979Z,79.60
2023-04-18T03:16:21.207Z,79.70
2023-04-18T03:18:48.466Z,79.90
2023-04-18T03:21:15.510Z,80.00
2023-04-18T03:23:42.954Z,80.10
2023-04-18T03:26:10.100Z,80.30
2023-04-18T03:28:37.144Z,80.30
2023-04-18T03:31:04.540Z,80.20
2023-04-18T03:33:31.604Z,80.10
2023-04-18T03:35:59.518Z,79.90
2023-04-18T03:38:26.641Z,79.80
2023-04-18T03:40:54.612Z,79.90
2023-04-18T03:43:21.948Z,79.70
2023-04-18T03:45:49.187Z,79.70
2023-04-18T03:48:16.296Z,80.00
2023-04-18T03:50:43.389Z,80.00
2023-04-18T03:53:10.488Z,80.00
2023-04-18T03:55:37.696Z,80.20
2023-04-18T03:58:05.278Z,80.40
2023-04-18T04:00:32.456Z,80.60
2023-04-18T04:03:00.001Z,80.50
2023-04-18T04:05:27.342Z,80.50
2023-04-18T04:07:54.594Z,80.50
2023-04-18T04:10:24.965Z,80.50
2023-04-18T04:12:52.039Z,80.50
2023-04-18T04:15:19.152Z,80.30
2023-04-18T04:17:47.825Z,80.00
2023-04-18T04:20:15.131Z,80.00
2023-04-18T04:22:42.922Z,80.20
2023-04-18T04:25:10.572Z,80.80
2023-04-18T04:27:39.216Z,80.00
2023-04-18T04:30:07.559Z,80.20
2023-04-18T04:32:34.693Z,80.50
2023-04-18T04:35:01.767Z,80.30
2023-04-18T04:37:28.924Z,80.20
2023-04-18T04:39:57.166Z,80.50
2023-04-18T04:42:25.398Z,80.60
2023-04-18T04:44:53.910Z,80.40
2023-04-18T04:47:21.079Z,80.50
2023-04-18T04:49:48.268Z,80.60
2023-04-18T04:52:15.427Z,80.60
2023-04-18T04:54:43.570Z,80.90
2023-04-18T04:57:10.854Z,81.00
2023-04-18T04:59:37.943Z,81.10
2023-04-18T05:02:06.274Z,81.10
2023-04-18T05:04:33.493Z,80.90
2023-04-18T05:07:00.688Z,80.70
2023-04-18T05:09:27.787Z,80.30
2023-04-18T05:11:54.849Z,80.00
2023-04-18T05:14:21.941Z,79.60
2023-04-18T05:16:49.266Z,79.30
2023-04-18T05:19:16.686Z,79.10
2023-04-18T05:21:44.017Z,79.20
2023-04-18T05:24:12.567Z,79.00
2023-04-18T05:26:40.243Z,78.20
2023-04-18T05:29:07.398Z,78.00
2023-04-18T05:31:38.366Z,78.10
2023-04-18T05:34:06.468Z,78.30
2023-04-18T05:36:33.595Z,78.30
2023-04-18T05:39:04.047Z,78.40
2023-04-18T05:41:31.342Z,78.00
2023-04-18T05:44:05.417Z,77.50
2023-04-18T05:46:36.176Z,77.00
2023-04-18T05:49:04.620Z,77.00
2023-04-18T05:51:33.314Z,76.60
2023-04-18T05:54:00.486Z,76.50
2023-04-18T05:56:27.694Z,76.70
2023-04-18T05:58:54.810Z,76.30
2023-04-18T06:01:21.830Z,76.00
2023-04-18T06:03:49.059Z,75.80
2023-04-18T06:06:16.438Z,75.50
2023-04-18T06:08:43.654Z,75.50
2023-04-18T06:11:10.935Z,75.00
2023-04-18T06:13:38.049Z,74.90
2023-04-18T06:16:06.119Z,75.00
2023-04-18T06:18:33.398Z,74.80
2023-04-18T06:21:00.806Z,74.80
2023-04-18T06:23:27.907Z,74.80
2023-04-18T06:25:55.060Z,74.70
2023-04-18T06:28:22.417Z,74.10
2023-04-18T06:30:49.553Z,73.90
2023-04-18T06:33:16.630Z,73.50
2023-04-18T06:35:43.737Z,73.40
2023-04-18T06:38:13.834Z,73.70
2023-04-18T06:40:40.848Z,73.90
2023-04-18T06:43:08.003Z,73.90
2023-04-18T06:45:35.800Z,74.20
2023-04-18T06:48:03.977Z,74.40
2023-04-18T06:50:31.251Z,74.40
2023-04-18T06:53:00.585Z,74.00
2023-04-18T06:55:27.661Z,73.50
2023-04-18T06:57:55.949Z,72.70
2023-04-18T07:00:23.231Z,72.20
2023-04-18T07:02:50.740Z,72.20
2023-04-18T07:05:18.080Z,71.60
2023-04-18T07:07:45.238Z,70.70
2023-04-18T07:10:26.646Z,70.10
2023-04-18T07:12:55.732Z,69.80
2023-04-18T07:15:24.394Z,69.70
2023-04-18T07:17:51.437Z,69.20
2023-04-18T07:20:21.746Z,68.80
2023-04-18T07:22:52.624Z,68.70
2023-04-18T07:25:19.967Z,68.60
2023-04-18T07:27:47.816Z,68.30
2023-04-18T07:30:15.275Z,68.30
2023-04-18T07:32:42.384Z,68.60
2023-04-18T07:35:33.379Z,68.50
2023-04-18T07:38:01.325Z,68.60
2023-04-18T07:40:28.489Z,68.90
2023-04-18T07:42:55.587Z,68.90
2023-04-18T07:45:22.708Z,68.90
2023-04-18T07:47:53.006Z,68.70
2023-04-18T07:50:20.821Z,68.00
2023-04-18T07:52:48.438Z,67.30
2023-04-18T07:55:16.257Z,68.10
2023-04-18T07:57:45.856Z,68.20
2023-04-18T08:00:14.345Z,68.90
2023-04-18T08:02:42.100Z,69.50
2023-04-18T08:05:10.155Z,67.90
2023-04-18T08:07:37.461Z,67.90
2023-04-18T08:10:05.077Z,68.10
2023-04-18T08:12:32.197Z,68.70
2023-04-18T08:14:59.401Z,67.50
2023-04-18T08:17:26.855Z,66.80
2023-04-18T08:19:54.108Z,67.10
2023-04-18T08:22:21.289Z,66.40
2023-04-18T08:25:01.186Z,66.30
2023-04-18T08:27:31.717Z,66.50
2023-04-18T08:29:58.856Z,66.30
2023-04-18T08:32:26.745Z,66.30
2023-04-18T08:34:53.844Z,66.30
2023-04-18T08:37:20.975Z,65.20
2023-04-18T08:39:50.417Z,65.10
2023-04-18T08:42:19.774Z,64.20
2023-04-18T08:44:47.505Z,64.50
2023-04-18T08:47:18.021Z,64.80
2023-04-18T08:49:45.945Z,64.80
2023-04-18T08:52:19.313Z,65.80
2023-04-18T08:54:47.166Z,65.30
2023-04-18T08:57:18.664Z,65.40
2023-04-18T08:59:51.087Z,65.40
2023-04-18T09:02:19.677Z,66.10
2023-04-18T09:04:49.364Z,66.20
2023-04-18T09:07:17.100Z,66.20
2023-04-18T09:09:47.821Z,66.10
2023-04-18T09:12:18.351Z,65.80
2023-04-18T09:14:46.980Z,65.50
2023-04-18T09:17:15.438Z,64.80
2023-04-18T09:19:54.614Z,64.50
2023-04-18T09:22:22.102Z,63.60
2023-04-18T09:24:53.894Z,63.50
2023-04-18T09:27:23.824Z,62.20
2023-04-18T09:29:52.229Z,59.80
2023-04-18T09:32:25.629Z,59.20
2023-04-18T09:34:58.377Z,59.00
2023-04-18T09:37:26.006Z,58.40
2023-04-18T09:39:53.249Z,58.80
2023-04-18T09:42:20.370Z,58.60
2023-04-18T09:45:06.864Z,57.80
2023-04-18T09:47:37.713Z,57.60
2023-04-18T09:50:06.298Z,56.50
2023-04-18T09:52:38.357Z,56.20
2023-04-18T09:59:01.216Z,54.30
2023-04-18T10:01:28.664Z,54.30
2023-04-18T10:04:00.443Z,54.40
2023-04-18T10:06:28.228Z,54.50
2023-04-18T10:08:55.297Z,55.00
2023-04-18T10:11:24.966Z,55.40
2023-04-18T10:13:55.242Z,56.30
2023-04-18T10:16:22.346Z,57.00
2023-04-18T10:18:52.037Z,57.00
2023-04-18T10:21:19.148Z,57.20
2023-04-18T10:23:49.302Z,56.70
2023-04-18T10:26:16.536Z,56.20
2023-04-18T10:28:53.763Z,55.50
2023-04-18T10:31:25.299Z,56.30
2023-04-18T10:34:18.415Z,55.80
2023-04-18T10:37:13.944Z,55.90
2023-04-18T10:40:06.741Z,55.90
2023-04-18T10:42:48.895Z,55.40
2023-04-18T10:45:25.504Z,55.10
2023-04-18T10:48:21.735Z,54.70
2023-04-18T10:51:16.482Z,53.00
2023-04-18T10:53:56.313Z,52.90
2023-04-18T10:56:28.358Z,53.70
2023-04-18T10:58:57.186Z,52.60
2023-04-18T11:12:10.876Z,52.90
2023-04-18T11:14:47.273Z,51.00
2023-04-18T11:17:30.003Z,51.10
2023-04-18T11:20:07.867Z,51.30
2023-04-18T11:22:59.569Z,50.60
2023-04-18T11:28:30.977Z,51.90
2023-04-18T11:34:58.109Z,52.80
2023-04-18T11:40:32.466Z,53.90
2023-04-18T11:43:10.661Z,54.10
2023-04-18T11:45:41.472Z,54.20
2023-04-18T11:48:08.732Z,54.20
2023-04-18T11:50:37.719Z,54.50
2023-04-18T11:53:08.913Z,55.50
2023-04-18T11:55:36.987Z,56.50
2023-04-18T11:58:05.992Z,56.70
2023-04-18T12:00:47.163Z,57.10
2023-04-18T12:03:19.095Z,57.70
2023-04-18T12:05:58.747Z,57.80
2023-04-18T12:12:12.242Z,58.30
2023-04-18T12:14:42.637Z,57.40
2023-04-18T12:17:10.104Z,57.10
2023-04-18T12:23:14.577Z,55.80
2023-04-18T12:25:44.087Z,54.00
2023-04-18T12:28:15.770Z,52.90
2023-04-18T12:30:46.483Z,52.40
2023-04-18T12:33:13.589Z,51.90
2023-04-18T12:35:41.556Z,51.40
2023-04-18T12:38:10.951Z,52.30
2023-04-18T12:40:42.223Z,52.80
2023-04-18T12:43:10.253Z,52.20
2023-04-18T12:45:38.850Z,52.80
2023-04-18T12:48:07.245Z,52.70
2023-04-18T12:50:34.746Z,52.40
2023-04-18T12:53:03.348Z,52.40
2023-04-18T12:55:30.936Z,52.10
2023-04-18T12:58:01.331Z,51.60
2023-04-18T13:00:30.135Z,52.10
2023-04-18T13:03:00.434Z,52.20
2023-04-18T13:05:30.894Z,51.90
2023-04-18T13:08:12.876Z,51.10
2023-04-18T13:10:44.117Z,51.30
2023-04-18T13:13:11.408Z,52.00
2023-04-18T13:15:38.697Z,52.00
2023-04-18T13:18:07.496Z,51.90
2023-04-18T13:20:35.153Z,51.30
2023-04-18T13:23:06.327Z,50.60
2023-04-18T13:25:34.176Z,51.00
2023-04-18T13:28:01.690Z,50.70
2023-04-18T13:30:29.685Z,51.00
2023-04-18T13:33:02.759Z,50.80
2023-04-18T13:35:31.631Z,50.50
2023-04-18T13:37:59.037Z,50.70
2023-04-18T13:40:27.272Z,51.20
2023-04-18T13:42:54.499Z,50.90
2023-04-18T13:45:22.014Z,51.20
2023-04-18T13:47:49.395Z,51.50
2023-04-18T13:50:17.035Z,51.90
2023-04-18T13:52:44.165Z,51.10
2023-04-18T13:55:11.374Z,51.70
2023-04-18T13:57:38.717Z,52.30
2023-04-18T14:00:06.879Z,52.70
2023-04-18T14:02:34.069Z,53.20
2023-04-18T14:05:03.237Z,53.80
2023-04-18T14:07:31.349Z,54.30
2023-04-18T14:09:59.861Z,54.80
2023-04-18T14:12:27.073Z,55.30
2023-04-18T14:14:54.176Z,55.80
2023-04-18T14:17:21.521Z,56.20
2023-04-18T14:19:51.698Z,56.70
2023-04-18T14:22:18.766Z,56.80
2023-04-18T14:24:46.236Z,56.60
2023-04-18T14:27:13.323Z,56.50
2023-04-18T14:29:44.697Z,56.20
2023-04-18T14:32:12.339Z,56.10
2023-04-18T14:34:39.506Z,55.90
2023-04-18T14:37:11.921Z,56.00
2023-04-18T14:39:42.697Z,56.10
2023-04-18T14:42:09.915Z,56.50
2023-04-18T14:44:40.013Z,57.00
2023-04-18T14:47:11.020Z,57.00
2023-04-18T14:49:38.506Z,56.10
2023-04-18T14:52:05.684Z,56.30
2023-04-18T14:54:34.231Z,56.30
2023-04-18T14:57:25.610Z,55.90
2023-04-18T14:59:54.773Z,55.50
2023-04-18T15:02:25.514Z,55.50
2023-04-18T15:04:53.829Z,55.70
2023-04-18T15:07:21.680Z,55.70
2023-04-18T15:09:54.010Z,55.90
2023-04-18T15:12:21.748Z,56.00
2023-04-18T15:14:50.443Z,55.50
2023-04-18T15:17:17.624Z,55.90
2023-04-18T15:19:47.304Z,55.90
2023-04-18T15:22:18.126Z,55.50
2023-04-18T15:24:45.720Z,55.20
2023-04-18T15:27:13.033Z,55.40
2023-04-18T15:29:40.262Z,56.00
2023-04-18T15:32:07.723Z,55.70
2023-04-18T15:34:35.253Z,55.60
2023-04-18T15:37:03.584Z,55.80
2023-04-18T15:39:31.093Z,56.00
2023-04-18T15:41:59.781Z,56.10
2023-04-18T15:44:27.458Z,56.10
2023-04-18T15:46:54.936Z,56.50
2023-04-18T15:49:22.354Z,56.50
2023-04-18T15:51:49.623Z,56.70
2023-04-18T15:54:17.063Z,56.60
2023-04-18T15:56:45.016Z,56.80
2023-04-18T15:59:13.616Z,56.80
2023-04-18T16:01:41.595Z,57.10
2023-04-18T16:04:09.573Z,57.30
2023-04-18T16:06:37.702Z,57.30
2023-04-18T16:09:07.073Z,57.40
2023-04-18T16:11:34.430Z,57.60
2023-04-18T16:14:01.965Z,57.60
2023-04-18T16:16:29.974Z,57.70
2023-04-18T16:18:57.528Z,57.60
2023-04-18T16:21:24.832Z,57.60
2023-04-18T16:23:52.033Z,57.80
2023-04-18T16:26:19.352Z,57.90
2023-04-18T16:28:48.374Z,58.00
2023-04-18T16:31:16.330Z,58.00
2023-04-18T16:33:45.198Z,58.00
2023-04-18T16:36:12.360Z,58.10
2023-04-18T16:38:43.511Z,58.10
2023-04-18T16:41:10.911Z,58.20
2023-04-18T16:43:39.477Z,58.00
2023-04-18T16:46:06.761Z,58.00
2023-04-18T16:48:34.001Z,58.50
2023-04-18T16:51:01.333Z,58.70
2023-04-18T16:53:28.765Z,59.10
2023-04-18T16:55:56.097Z,59.20
2023-04-18T16:58:23.877Z,59.30
2023-04-18T17:00:53.046Z,59.60
2023-04-18T17:03:20.391Z,59.70
2023-04-18T17:05:47.745Z,59.90
2023-04-18T17:08:17.790Z,60.30
2023-04-18T17:10:45.427Z,60.10
2023-04-18T17:13:12.832Z,59.40
2023-04-18T17:15:41.450Z,59.70
2023-04-18T17:18:09.330Z,60.00
2023-04-18T17:20:48.688Z,60.20
2023-04-18T17:23:16.333Z,60.50
2023-04-18T17:25:51.182Z,60.70
2023-04-18T17:28:28.916Z,60.70
2023-04-18T17:31:03.302Z,60.50
2023-04-18T17:33:31.345Z,60.40
2023-04-18T17:35:58.805Z,60.30
2023-04-18T17:38:26.254Z,60.10
2023-04-18T17:41:03.644Z,60.10
2023-04-18T17:43:35.654Z,60.30
2023-04-18T17:46:04.341Z,59.90
2023-04-18T17:48:31.799Z,59.60
2023-04-18T17:50:59.122Z,59.50
2023-04-18T17:53:31.932Z,59.50
2023-04-18T17:55:59.662Z,59.70
2023-04-18T17:58:28.608Z,59.70
2023-04-18T18:00:56.071Z,59.80
2023-04-18T18:03:23.953Z,59.80
2023-04-18T18:05:56.340Z,59.80
2023-04-18T18:08:23.747Z,59.70
2023-04-18T18:14:12.695Z,61.00
2023-04-18T18:16:40.769Z,60.20
2023-04-18T18:19:15.000Z,60.20
2023-04-18T18:21:50.126Z,59.90
2023-04-18T18:24:18.922Z,60.10
2023-04-18T18:27:04.002Z,60.60
2023-04-18T18:29:48.034Z,60.70
2023-04-18T18:32:15.314Z,60.70
2023-04-18T18:34:50.245Z,60.90
2023-04-18T18:37:26.920Z,60.80
2023-04-18T18:40:00.719Z,60.70
2023-04-18T18:42:28.850Z,60.90
2023-04-18T18:45:08.328Z,61.00
2023-04-18T18:50:17.931Z,61.40
2023-04-18T18:53:02.631Z,61.70
2023-04-18T18:55:31.846Z,61.70
2023-04-18T18:58:00.125Z,61.40
2023-04-18T19:00:27.839Z,61.70
2023-04-18T19:03:09.275Z,62.10
2023-04-18T19:05:48.545Z,62.30
2023-04-18T19:08:18.676Z,62.70
2023-04-18T19:10:46.700Z,62.60
2023-04-18T19:13:14.203Z,62.70
2023-04-18T19:15:52.173Z,62.90
2023-04-18T19:18:34.427Z,63.00
2023-04-18T19:21:08.128Z,63.10
2023-04-18T19:23:44.849Z,63.20
2023-04-18T19:26:17.933Z,63.40
2023-04-18T19:32:33.073Z,63.50
2023-04-18T19:35:00.474Z,63.60
2023-04-18T19:37:27.934Z,64.30
2023-04-18T19:39:58.298Z,64.40
2023-04-18T19:42:29.595Z,64.80
2023-04-18T19:45:03.645Z,64.30
2023-04-18T19:47:34.623Z,64.00
2023-04-18T19:50:10.660Z,64.10
2023-04-18T19:53:01.141Z,64.10
2023-04-18T20:02:03.311Z,64.60
2023-04-18T20:04:47.241Z,64.80
2023-04-18T20:10:12.061Z,65.50
2023-04-18T20:16:04.997Z,64.70
2023-04-18T20:18:32.729Z,64.80
2023-04-18T20:21:19.081Z,64.80
2023-04-18T20:24:03.483Z,64.80
2023-04-18T20:26:31.652Z,65.10
2023-04-18T20:29:01.419Z,65.40
2023-04-18T20:34:15.698Z,66.40
2023-04-18T20:36:44.244Z,67.10
2023-04-18T20:39:25.323Z,67.30
2023-04-18T20:41:59.207Z,67.60
2023-04-18T20:44:31.898Z,68.40
2023-04-18T20:49:48.318Z,69.40
2023-04-18T20:52:16.811Z,70.10
2023-04-18T20:54:44.463Z,70.10
2023-04-18T20:57:41.239Z,70.40
2023-04-18T21:05:35.810Z,72.00
2023-04-18T21:08:03.742Z,71.90
2023-04-18T21:10:31.673Z,72.20
2023-04-18T21:13:17.202Z,72.60
2023-04-18T21:15:59.983Z,72.80
2023-04-18T21:18:27.823Z,72.70
2023-04-18T21:20:55.657Z,72.90
2023-04-18T21:23:26.091Z,72.80
2023-04-18T21:25:58.365Z,72.50
2023-04-18T21:28:27.042Z,72.30
2023-04-18T21:30:58.423Z,72.30
2023-04-18T21:33:27.013Z,73.10
2023-04-18T21:35:57.873Z,73.90
2023-04-18T21:38:33.140Z,74.70
2023-04-18T21:41:15.537Z,74.60
2023-04-18T21:43:46.828Z,74.20
2023-04-18T21:46:15.101Z,74.00
2023-04-18T21:48:45.849Z,74.20
2023-04-18T21:51:14.664Z,74.70
2023-04-18T21:53:42.718Z,74.70
2023-04-18T21:56:11.484Z,75.20
2023-04-18T21:58:38.850Z,75.50
2023-04-18T22:01:11.663Z,75.80
2023-04-18T22:03:39.311Z,76.10
2023-04-18T22:06:09.587Z,76.00
2023-04-18T22:08:38.980Z,76.40
2023-04-18T22:11:06.673Z,76.40
2023-04-18T22:13:34.110Z,76.00
2023-04-18T22:16:05.281Z,75.70
2023-04-18T22:18:37.923Z,75.40
2023-04-18T22:21:05.445Z,75.50
2023-04-18T22:23:41.845Z,75.20
2023-04-18T22:26:09.167Z,75.10
2023-04-18T22:28:36.855Z,75.10
2023-04-18T22:31:04.142Z,75.00
2023-04-18T22:33:31.442Z,75.20
2023-04-18T22:36:00.636Z,75.80
2023-04-18T22:38:31.064Z,76.10
2023-04-18T22:41:01.229Z,76.30
2023-04-18T22:43:29.363Z,77.00
2023-04-18T22:45:56.903Z,77.30
2023-04-18T22:48:25.542Z,77.80
2023-04-18T22:50:53.026Z,78.40
2023-04-18T22:53:20.518Z,78.60
2023-04-18T22:55:55.576Z,78.40
2023-04-18T22:58:22.979Z,78.50
2023-04-18T23:00:51.114Z,78.20
2023-04-18T23:03:18.707Z,78.80
2023-04-18T23:05:46.085Z,79.70
2023-04-18T23:08:13.594Z,80.70
2023-04-18T23:10:43.928Z,80.80
2023-04-18T23:13:11.218Z,80.70
2023-04-18T23:15:41.623Z,80.40
2023-04-18T23:18:09.059Z,80.00
2023-04-18T23:20:37.855Z,79.70
2023-04-18T23:23:05.392Z,79.40
2023-04-18T23:25:42.201Z,79.40
2023-04-18T23:28:13.850Z,79.40
2023-04-18T23:30:47.480Z,79.10
2023-04-18T23:33:14.775Z,79.30
2023-04-18T23:35:41.969Z,78.60
2023-04-18T23:38:09.454Z,78.30
2023-04-18T23:40:36.641Z,78.10
2023-04-18T23:43:07.096Z,77.90
2023-04-18T23:45:36.557Z,77.80
2023-04-18T23:48:07.048Z,77.70
2023-04-18T23:50:34.976Z,77.90
2023-04-18T23:53:05.225Z,77.90
2023-04-18T23:55:32.504Z,77.70
2023-04-18T23:57:59.806Z,77.80
